Time;durP1;ratioP1;P1;durP2;ratioP2;P2;SDS_P1;SDS_P2;PMS_P1;PMS_P2;Temp;Humidity;BMP_temperature;BMP_pressure;BME280_temperature;BME280_humidity;BME280_pressure;Samples;Min_cycle;Max_cycle;Signal;HPM_P1;HPM_P2
2021/11/26 00:02:19;;;;;;;60.65;25.25;;;5.70;99.90;;;;;;5055135;28;20028;-64
2021/11/26 00:04:45;;;;;;;50.03;24.48;;;5.60;99.90;;;;;;5054122;28;20033;-62
2021/11/26 00:07:11;;;;;;;51.03;24.80;;;5.60;99.90;;;;;;5054001;28;20033;-62
2021/11/26 00:09:37;;;;;;;45.95;22.75;;;5.70;99.90;;;;;;5047115;28;20040;-61
2021/11/26 00:12:06;;;;;;;52.80;23.08;;;5.70;99.90;;;;;;5036051;28;20063;-64
2021/11/26 00:14:36;;;;;;;45.75;21.27;;;5.70;99.90;;;;;;5053319;28;20025;-63
2021/11/26 00:17:04;;;;;;;49.53;24.02;;;5.70;99.90;;;;;;5056867;28;20353;-61
2021/11/26 00:19:30;;;;;;;44.35;21.73;;;5.70;99.90;;;;;;5056231;28;20032;-63
2021/11/26 00:21:57;;;;;;;48.20;20.65;;;5.70;99.90;;;;;;5054701;28;20029;-62
2021/11/26 00:24:24;;;;;;;47.80;20.95;;;5.70;99.90;;;;;;5054319;28;20060;-63
2021/11/26 00:26:50;;;;;;;50.63;21.65;;;5.70;99.90;;;;;;5054180;28;20485;-62
2021/11/26 00:29:17;;;;;;;48.60;22.67;;;5.70;99.90;;;;;;5054279;28;20060;-63
2021/11/26 00:31:43;;;;;;;54.42;23.75;;;5.80;99.90;;;;;;5056330;28;20025;-63
2021/11/26 00:34:09;;;;;;;48.28;25.17;;;5.70;99.90;;;;;;5054449;28;20040;-63
2021/11/26 00:36:38;;;;;;;47.47;22.75;;;5.70;99.90;;;;;;5054206;28;20128;-63
2021/11/26 00:39:05;;;;;;;49.15;22.83;;;5.70;99.90;;;;;;5054253;28;20029;-62
2021/11/26 00:41:31;;;;;;;53.63;24.15;;;5.70;99.90;;;;;;5054289;28;20166;-62
2021/11/26 00:44:00;;;;;;;54.67;23.10;;;5.60;99.90;;;;;;5053946;28;20078;-63
2021/11/26 00:46:32;;;;;;;53.15;24.90;;;5.60;99.90;;;;;;5036716;28;20482;-63
2021/11/26 00:49:00;;;;;;;48.70;23.80;;;5.70;99.90;;;;;;5054233;28;20537;-63
2021/11/26 00:51:30;;;;;;;45.97;23.60;;;5.70;99.90;;;;;;5052468;28;20415;-61
2021/11/26 00:54:02;;;;;;;54.00;24.63;;;5.60;99.90;;;;;;5053109;28;20044;-63
2021/11/26 00:56:30;;;;;;;56.45;25.65;;;5.60;99.90;;;;;;5053051;28;20040;-63
2021/11/26 00:58:56;;;;;;;54.08;23.33;;;5.60;99.90;;;;;;5053243;28;20036;-62
2021/11/26 01:01:21;;;;;;;54.03;25.13;;;5.60;99.90;;;;;;5058280;28;20040;-62
2021/11/26 01:03:49;;;;;;;60.95;26.15;;;5.60;99.90;;;;;;5053055;28;20025;-62
2021/11/26 01:06:15;;;;;;;62.80;27.73;;;5.70;99.90;;;;;;5048739;28;20033;-63
2021/11/26 01:08:43;;;;;;;63.67;26.58;;;5.70;99.90;;;;;;5054961;28;20025;-62
2021/11/26 01:11:11;;;;;;;55.90;23.80;;;5.60;99.90;;;;;;5053118;28;20482;-62
2021/11/26 01:13:37;;;;;;;56.40;24.63;;;5.60;99.90;;;;;;5051215;28;20035;-62
2021/11/26 01:16:03;;;;;;;51.88;24.45;;;5.60;99.90;;;;;;5053110;28;20017;-63
2021/11/26 01:18:28;;;;;;;49.03;22.45;;;5.50;99.90;;;;;;5052936;28;20021;-63
2021/11/26 01:20:58;;;;;;;57.28;24.67;;;5.50;99.90;;;;;;5052970;28;20021;-62
2021/11/26 01:23:25;;;;;;;54.25;25.33;;;5.40;99.90;;;;;;5053361;28;20021;-63
2021/11/26 01:25:52;;;;;;;57.00;27.63;;;5.40;99.90;;;;;;5052715;28;20013;-62
2021/11/26 01:28:20;;;;;;;48.95;24.42;;;5.40;99.90;;;;;;5052607;28;20032;-62
2021/11/26 01:30:47;;;;;;;65.57;26.95;;;5.40;99.90;;;;;;5048329;28;20108;-62
2021/11/26 01:33:15;;;;;;;69.35;27.33;;;5.40;99.90;;;;;;5052566;28;20017;-63
2021/11/26 01:35:41;;;;;;;55.85;25.02;;;5.40;99.90;;;;;;5052271;28;20462;-62
2021/11/26 01:38:08;;;;;;;59.42;27.27;;;5.40;99.90;;;;;;5035006;28;20075;-63
2021/11/26 01:40:36;;;;;;;62.88;27.88;;;5.20;99.90;;;;;;5045972;28;20033;-63
2021/11/26 01:43:04;;;;;;;52.58;26.45;;;5.30;99.90;;;;;;5052420;28;20040;-63
2021/11/26 01:45:30;;;;;;;51.95;26.40;;;5.30;99.90;;;;;;5052587;28;20485;-62
2021/11/26 01:47:58;;;;;;;62.08;26.98;;;5.30;99.90;;;;;;5052614;28;20111;-63
2021/11/26 01:50:23;;;;;;;49.35;24.38;;;5.30;99.90;;;;;;5049864;28;20036;-60
2021/11/26 01:52:50;;;;;;;57.50;24.38;;;5.30;99.90;;;;;;5048339;28;20029;-62
2021/11/26 01:55:18;;;;;;;50.75;23.20;;;5.30;99.90;;;;;;5052752;28;20087;-60
2021/11/26 01:57:45;;;;;;;52.10;24.08;;;5.20;99.90;;;;;;5048124;28;20029;-60
2021/11/26 02:00:14;;;;;;;52.53;23.23;;;5.20;99.90;;;;;;5052883;28;20063;-61
2021/11/26 02:02:42;;;;;;;51.92;22.95;;;5.20;99.90;;;;;;5056984;28;20028;-61
2021/11/26 02:05:10;;;;;;;46.47;23.40;;;5.20;99.90;;;;;;5034899;28;20033;-61
2021/11/26 02:07:36;;;;;;;43.58;22.88;;;5.20;99.90;;;;;;5052604;28;20029;-61
2021/11/26 02:10:03;;;;;;;49.15;25.90;;;5.20;99.90;;;;;;5052479;28;20202;-63
2021/11/26 02:12:29;;;;;;;53.67;24.80;;;5.20;99.90;;;;;;5052113;28;20032;-62
2021/11/26 02:14:58;;;;;;;46.40;23.23;;;5.10;99.90;;;;;;5034523;28;20418;-61
2021/11/26 02:17:24;;;;;;;55.10;23.23;;;5.10;99.90;;;;;;5034723;28;20025;-62
2021/11/26 02:19:54;;;;;;;49.97;22.67;;;5.00;99.90;;;;;;5051957;28;20473;-60
2021/11/26 02:22:23;;;;;;;49.90;22.85;;;4.90;99.90;;;;;;5052167;28;20409;-61
2021/11/26 02:24:48;;;;;;;44.67;23.05;;;4.80;99.90;;;;;;5052179;28;20049;-61
2021/11/26 02:27:18;;;;;;;44.95;22.15;;;4.80;99.90;;;;;;5052219;28;20021;-61
2021/11/26 02:29:55;;;;;;;44.42;21.40;;;4.70;99.90;;;;;;5052390;28;20029;-60
2021/11/26 02:32:22;;;;;;;38.53;19.42;;;4.70;99.90;;;;;;5054369;28;20059;-61
2021/11/26 02:34:48;;;;;;;54.25;20.98;;;4.70;99.90;;;;;;5052101;28;20017;-61
2021/11/26 02:37:16;;;;;;;40.78;19.08;;;4.70;99.90;;;;;;5027976;28;20315;-61
2021/11/26 02:39:41;;;;;;;45.88;21.05;;;4.60;99.90;;;;;;5052185;28;20032;-61
2021/11/26 02:42:07;;;;;;;43.28;19.80;;;4.60;99.90;;;;;;5034324;28;20346;-61
2021/11/26 02:44:35;;;;;;;47.88;21.10;;;4.70;99.90;;;;;;5052145;28;20109;-60
2021/11/26 02:47:03;;;;;;;46.53;19.38;;;4.60;99.90;;;;;;5052997;28;20430;-62
2021/11/26 02:49:28;;;;;;;42.70;21.23;;;4.70;99.90;;;;;;5049104;28;20043;-61
2021/11/26 02:51:54;;;;;;;41.97;18.65;;;4.60;99.90;;;;;;5055643;28;20025;-61
2021/11/26 02:54:20;;;;;;;40.50;19.08;;;4.60;99.90;;;;;;5037803;28;20112;-62
2021/11/26 02:56:45;;;;;;;47.92;18.75;;;4.70;99.90;;;;;;5055561;28;20033;-62
2021/11/26 02:59:11;;;;;;;37.00;16.00;;;4.70;99.90;;;;;;5037958;28;20068;-60
2021/11/26 03:01:39;;;;;;;43.58;18.58;;;4.80;99.90;;;;;;5061650;28;20449;-60
2021/11/26 03:04:07;;;;;;;37.25;16.33;;;4.90;99.90;;;;;;5055771;28;20025;-61
2021/11/26 03:06:32;;;;;;;41.65;18.83;;;4.90;99.90;;;;;;5055359;28;20037;-60
2021/11/26 03:08:58;;;;;;;37.42;16.58;;;5.00;99.90;;;;;;5055134;28;20029;-59
2021/11/26 03:11:26;;;;;;;41.45;16.50;;;5.00;99.90;;;;;;5055198;28;20406;-61
2021/11/26 03:13:51;;;;;;;39.05;16.65;;;5.00;99.90;;;;;;5055257;28;20029;-61
2021/11/26 03:16:19;;;;;;;38.70;17.55;;;5.00;99.90;;;;;;5037321;28;20021;-59
2021/11/26 03:18:47;;;;;;;40.08;17.30;;;5.00;99.90;;;;;;5037851;28;20028;-60
2021/11/26 03:21:13;;;;;;;36.72;17.27;;;5.00;99.90;;;;;;5055194;28;20025;-59
2021/11/26 03:23:39;;;;;;;33.67;17.00;;;5.00;99.90;;;;;;5055228;28;20032;-60
2021/11/26 03:26:04;;;;;;;36.08;17.73;;;5.00;99.90;;;;;;5055035;28;20349;-61
2021/11/26 03:28:30;;;;;;;34.25;18.08;;;5.00;99.90;;;;;;5054764;28;20025;-61
2021/11/26 03:30:56;;;;;;;35.17;16.80;;;5.00;99.90;;;;;;5057910;28;20030;-60
2021/11/26 03:33:22;;;;;;;39.95;15.95;;;5.00;99.90;;;;;;5054959;28;20029;-61
2021/11/26 03:35:50;;;;;;;38.47;18.02;;;5.10;99.90;;;;;;5055130;28;20029;-61
2021/11/26 03:38:16;;;;;;;36.88;15.68;;;5.10;99.90;;;;;;5055142;28;20594;-62
2021/11/26 03:40:42;;;;;;;32.65;15.73;;;5.10;99.90;;;;;;5054660;28;20045;-61
2021/11/26 03:43:10;;;;;;;35.90;18.33;;;5.00;99.90;;;;;;5055573;28;20458;-61
2021/11/26 03:45:40;;;;;;;39.03;18.08;;;5.00;99.90;;;;;;5055737;28;20082;-62
2021/11/26 03:48:08;;;;;;;36.72;17.63;;;5.10;99.90;;;;;;5055223;28;20025;-62
2021/11/26 03:50:34;;;;;;;36.67;17.77;;;5.00;99.90;;;;;;5037205;28;20122;-61
2021/11/26 03:52:59;;;;;;;39.63;17.85;;;5.00;99.90;;;;;;5037230;28;20063;-60
2021/11/26 03:55:29;;;;;;;40.40;19.15;;;5.20;99.90;;;;;;5036841;28;20032;-62
2021/11/26 03:57:56;;;;;;;40.90;18.27;;;5.10;99.90;;;;;;5054090;28;20021;-61
2021/11/26 04:00:22;;;;;;;39.75;20.30;;;5.10;99.90;;;;;;5039164;28;20040;-61
2021/11/26 04:02:48;;;;;;;44.40;19.90;;;5.10;99.90;;;;;;5058411;28;20035;-62
2021/11/26 04:05:14;;;;;;;34.15;18.08;;;5.00;99.90;;;;;;5054287;28;20021;-62
2021/11/26 04:07:43;;;;;;;43.03;18.67;;;5.10;99.90;;;;;;5054333;28;20020;-62
2021/11/26 04:10:10;;;;;;;41.72;19.13;;;5.10;99.90;;;;;;5047363;28;20041;-62
2021/11/26 04:12:35;;;;;;;35.75;19.35;;;5.10;99.90;;;;;;5054261;28;20048;-62
2021/11/26 04:15:01;;;;;;;43.20;18.67;;;5.10;99.90;;;;;;5054355;28;20076;-61
2021/11/26 04:17:29;;;;;;;39.60;19.70;;;5.00;99.90;;;;;;5054256;28;20028;-61
2021/11/26 04:19:55;;;;;;;45.97;22.52;;;5.00;99.90;;;;;;5053924;28;20092;-62
2021/11/26 04:22:20;;;;;;;43.50;22.70;;;5.10;99.90;;;;;;5053970;28;20414;-62
2021/11/26 04:24:46;;;;;;;38.88;20.00;;;5.00;99.90;;;;;;5052937;28;20035;-61
2021/11/26 04:27:12;;;;;;;41.78;21.35;;;5.00;99.90;;;;;;5058652;28;20056;-62
2021/11/26 04:29:40;;;;;;;40.97;19.13;;;5.00;99.90;;;;;;5053994;28;20338;-62
2021/11/26 04:32:06;;;;;;;35.72;17.95;;;5.00;99.90;;;;;;5047041;28;20112;-62
2021/11/26 04:34:32;;;;;;;44.42;20.30;;;5.00;99.90;;;;;;5036023;28;20044;-61
2021/11/26 04:36:58;;;;;;;37.67;21.67;;;5.00;99.90;;;;;;5036022;28;20438;-61
2021/11/26 04:39:25;;;;;;;37.55;20.63;;;5.10;99.90;;;;;;5053967;28;20025;-61
2021/11/26 04:41:53;;;;;;;37.13;21.13;;;5.10;99.90;;;;;;5053591;28;20338;-61
2021/11/26 04:44:21;;;;;;;47.95;23.02;;;5.10;99.90;;;;;;5053592;28;20029;-62
2021/11/26 04:46:49;;;;;;;39.58;21.98;;;5.10;99.90;;;;;;5053459;28;20368;-62
2021/11/26 04:49:17;;;;;;;45.58;21.40;;;5.00;99.90;;;;;;5053489;28;20033;-62
2021/11/26 04:51:43;;;;;;;40.28;19.38;;;5.00;99.90;;;;;;5053345;28;20116;-62
2021/11/26 04:54:09;;;;;;;39.30;19.50;;;5.00;99.90;;;;;;5050446;28;20120;-61
2021/11/26 04:56:34;;;;;;;35.60;19.63;;;5.10;99.90;;;;;;5051674;28;20025;-62
2021/11/26 04:59:00;;;;;;;43.92;20.25;;;5.10;99.90;;;;;;5029049;28;20021;-62
2021/11/26 05:01:26;;;;;;;42.13;21.75;;;5.10;99.90;;;;;;5053440;28;20358;-63
2021/11/26 05:03:54;;;;;;;34.70;19.33;;;5.10;99.90;;;;;;5031858;28;20124;-62
2021/11/26 05:06:21;;;;;;;40.28;20.75;;;5.10;99.90;;;;;;5050502;28;20342;-62
2021/11/26 05:08:46;;;;;;;43.42;19.92;;;5.00;99.90;;;;;;5052964;28;20470;-62
2021/11/26 05:11:12;;;;;;;32.22;18.77;;;5.10;99.90;;;;;;5052505;28;20124;-62
2021/11/26 05:13:44;;;;;;;38.65;21.63;;;5.10;99.90;;;;;;5053271;28;20063;-62
2021/11/26 05:16:13;;;;;;;43.38;22.30;;;5.10;99.90;;;;;;5053061;28;20123;-63
2021/11/26 05:18:45;;;;;;;44.08;21.20;;;5.10;99.90;;;;;;5053139;28;20021;-63
2021/11/26 05:21:11;;;;;;;39.20;20.08;;;5.10;99.90;;;;;;5053124;28;20044;-63
2021/11/26 05:23:38;;;;;;;49.55;21.50;;;5.10;99.90;;;;;;5053059;28;20025;-63
2021/11/26 05:26:04;;;;;;;40.00;22.45;;;5.00;99.90;;;;;;5053090;28;20021;-62
2021/11/26 05:28:32;;;;;;;40.78;19.48;;;5.10;99.90;;;;;;5035305;28;20120;-61
2021/11/26 05:31:00;;;;;;;34.58;19.33;;;5.10;99.90;;;;;;5056715;28;20087;-61
2021/11/26 05:33:26;;;;;;;37.05;20.05;;;5.10;99.90;;;;;;5052685;28;20112;-60
2021/11/26 05:35:52;;;;;;;42.33;19.90;;;5.20;99.90;;;;;;5052990;28;20068;-62
2021/11/26 05:38:22;;;;;;;42.13;20.80;;;5.10;99.90;;;;;;5052659;28;20390;-62
2021/11/26 05:40:48;;;;;;;41.03;21.87;;;5.10;99.90;;;;;;5052913;28;20040;-63
2021/11/26 05:43:14;;;;;;;37.47;19.67;;;5.10;99.90;;;;;;5052714;28;20108;-63
2021/11/26 05:45:42;;;;;;;43.72;22.98;;;5.10;99.90;;;;;;5052935;28;20036;-64
2021/11/26 05:48:13;;;;;;;32.67;19.38;;;5.10;99.90;;;;;;5052917;28;20035;-62
2021/11/26 05:50:39;;;;;;;40.20;18.95;;;5.10;99.90;;;;;;5046103;28;20060;-61
2021/11/26 05:53:09;;;;;;;36.63;18.95;;;5.20;99.90;;;;;;5034810;28;20064;-62
2021/11/26 05:55:37;;;;;;;37.40;18.83;;;5.10;99.90;;;;;;5052781;28;20481;-63
2021/11/26 05:58:02;;;;;;;34.25;19.30;;;5.20;99.90;;;;;;5052668;28;20326;-63
2021/11/26 06:00:32;;;;;;;31.90;19.10;;;5.20;99.90;;;;;;5052614;28;20018;-63
2021/11/26 06:03:01;;;;;;;31.33;17.40;;;5.20;99.90;;;;;;5034706;28;20029;-61
2021/11/26 06:05:27;;;;;;;30.55;17.30;;;5.20;99.90;;;;;;5052542;28;20401;-61
2021/11/26 06:07:53;;;;;;;38.90;18.33;;;5.20;99.90;;;;;;5052456;28;20025;-62
2021/11/26 06:10:19;;;;;;;28.27;16.45;;;5.20;99.90;;;;;;5052235;28;20063;-63
2021/11/26 06:12:46;;;;;;;25.08;16.48;;;5.30;99.90;;;;;;5051956;28;20395;-62
2021/11/26 06:15:13;;;;;;;23.65;13.75;;;5.30;99.90;;;;;;5052334;28;20086;-60
2021/11/26 06:17:40;;;;;;;21.58;13.02;;;5.30;99.90;;;;;;5033422;28;20021;-63
2021/11/26 06:20:06;;;;;;;24.20;14.00;;;5.30;99.90;;;;;;5047118;28;20044;-61
2021/11/26 06:22:32;;;;;;;25.80;13.27;;;5.30;99.90;;;;;;5055676;28;20033;-62
2021/11/26 06:24:58;;;;;;;23.23;12.73;;;5.30;99.90;;;;;;5056279;28;20025;-64
2021/11/26 06:27:23;;;;;;;20.77;13.60;;;5.30;99.90;;;;;;5056191;28;20025;-63
2021/11/26 06:29:49;;;;;;;19.98;11.95;;;5.20;99.90;;;;;;5056185;28;20087;-62
2021/11/26 06:32:14;;;;;;;20.23;11.43;;;5.20;99.90;;;;;;5060549;28;20037;-62
2021/11/26 06:34:40;;;;;;;22.33;12.52;;;5.20;99.90;;;;;;5038130;28;20111;-62
2021/11/26 06:37:08;;;;;;;18.98;11.98;;;5.20;99.90;;;;;;5038419;28;20086;-61
2021/11/26 06:39:36;;;;;;;17.98;11.75;;;5.20;99.90;;;;;;5056134;28;20442;-62
2021/11/26 06:42:04;;;;;;;18.92;11.88;;;5.00;99.90;;;;;;5056025;28;20041;-62
2021/11/26 06:44:30;;;;;;;21.73;12.93;;;5.10;99.90;;;;;;5038314;28;20032;-62
2021/11/26 06:46:55;;;;;;;19.23;12.13;;;5.00;99.90;;;;;;5031504;28;20025;-62
2021/11/26 06:49:21;;;;;;;16.95;10.02;;;5.00;99.90;;;;;;5038169;28;20048;-62
2021/11/26 06:51:47;;;;;;;14.70;8.98;;;5.00;99.90;;;;;;5055322;28;20029;-62
2021/11/26 06:54:12;;;;;;;14.85;9.82;;;4.90;99.90;;;;;;5055358;28;20029;-62
2021/11/26 06:56:38;;;;;;;13.93;8.15;;;4.80;99.90;;;;;;5055440;28;20426;-62
2021/11/26 06:59:04;;;;;;;12.95;7.93;;;4.80;99.90;;;;;;5037574;28;20299;-62
2021/11/26 07:01:31;;;;;;;17.92;9.55;;;4.60;99.90;;;;;;5057059;28;20017;-62
2021/11/26 07:04:02;;;;;;;12.55;7.78;;;4.70;99.90;;;;;;5055729;28;20021;-63
2021/11/26 07:06:30;;;;;;;14.00;8.60;;;4.70;99.90;;;;;;5038112;28;20048;-62
2021/11/26 07:08:58;;;;;;;15.73;9.48;;;4.60;99.90;;;;;;5038003;28;20032;-64
2021/11/26 07:11:26;;;;;;;21.05;8.73;;;4.60;99.90;;;;;;5055572;28;20074;-63
2021/11/26 07:13:51;;;;;;;18.35;8.25;;;4.60;99.90;;;;;;5037805;28;20024;-63
2021/11/26 07:16:18;;;;;;;17.48;9.50;;;4.60;99.90;;;;;;5055280;28;20446;-63
2021/11/26 07:18:44;;;;;;;17.08;9.15;;;4.60;99.90;;;;;;5031035;28;20336;-63
2021/11/26 07:21:10;;;;;;;20.10;9.20;;;4.50;99.90;;;;;;5055076;28;20095;-63
2021/11/26 07:23:38;;;;;;;22.90;10.65;;;4.60;99.90;;;;;;5048271;28;20037;-62
2021/11/26 07:26:04;;;;;;;19.02;10.40;;;4.60;99.90;;;;;;5054583;28;20029;-63
2021/11/26 07:28:30;;;;;;;19.77;10.68;;;4.60;99.90;;;;;;5054867;28;20066;-64
2021/11/26 07:30:56;;;;;;;23.48;10.38;;;4.50;99.90;;;;;;5059851;28;20035;-63
2021/11/26 07:33:22;;;;;;;22.15;11.63;;;4.50;99.90;;;;;;5036088;28;20418;-64
2021/11/26 07:35:52;;;;;;;14.68;9.65;;;4.50;99.90;;;;;;5054605;28;20033;-64
2021/11/26 07:38:20;;;;;;;20.30;9.68;;;4.60;99.90;;;;;;5037054;28;20021;-64
2021/11/26 07:40:46;;;;;;;16.10;8.95;;;4.50;99.90;;;;;;5037416;28;20036;-64
2021/11/26 07:43:12;;;;;;;20.15;10.13;;;4.50;99.90;;;;;;5048562;28;20024;-62
2021/11/26 07:45:40;;;;;;;12.40;7.25;;;4.50;99.90;;;;;;5055100;28;20021;-62
2021/11/26 07:48:06;;;;;;;11.55;6.35;;;4.50;99.90;;;;;;5037095;28;20035;-63
2021/11/26 07:50:32;;;;;;;10.05;6.68;;;4.40;99.90;;;;;;5054619;28;20037;-64
2021/11/26 07:52:58;;;;;;;11.45;6.75;;;4.40;99.90;;;;;;5054544;28;20461;-63
2021/11/26 07:55:23;;;;;;;12.52;6.35;;;4.40;99.90;;;;;;5054651;28;20029;-63
2021/11/26 07:57:50;;;;;;;10.02;6.43;;;4.40;99.90;;;;;;5048184;28;20036;-63
2021/11/26 08:00:18;;;;;;;10.68;6.45;;;4.30;99.90;;;;;;5055797;28;20082;-63
2021/11/26 08:02:49;;;;;;;11.07;6.57;;;4.30;99.90;;;;;;5054352;28;20036;-63
2021/11/26 08:05:15;;;;;;;12.80;7.07;;;4.30;99.90;;;;;;5047892;28;20021;-64
2021/11/26 08:07:41;;;;;;;13.93;7.63;;;4.30;99.90;;;;;;5054361;28;20021;-64
2021/11/26 08:10:10;;;;;;;12.70;7.22;;;4.40;99.90;;;;;;5056445;28;20477;-61
2021/11/26 08:12:38;;;;;;;11.27;7.20;;;4.40;99.90;;;;;;5043259;28;20072;-63
2021/11/26 08:15:12;;;;;;;11.95;6.63;;;4.40;99.90;;;;;;5053942;28;20338;-64
2021/11/26 08:17:37;;;;;;;10.48;6.95;;;4.50;99.90;;;;;;5053944;28;20025;-64
2021/11/26 08:20:04;;;;;;;19.85;8.10;;;4.50;99.90;;;;;;5058538;28;20319;-61
2021/11/26 08:22:30;;;;;;;11.88;7.25;;;4.50;99.90;;;;;;5030072;28;20102;-62
2021/11/26 08:24:55;;;;;;;12.50;7.32;;;4.50;99.90;;;;;;5046729;28;20416;-61
2021/11/26 08:27:23;;;;;;;19.65;8.27;;;4.40;99.90;;;;;;5053180;28;20039;-60
2021/11/26 08:29:49;;;;;;;18.77;9.50;;;4.50;99.90;;;;;;5054692;28;20024;-62
2021/11/26 08:32:17;;;;;;;17.65;9.60;;;4.60;99.90;;;;;;5064153;28;20029;-62
2021/11/26 08:34:42;;;;;;;25.73;11.35;;;4.60;99.90;;;;;;5057411;28;20039;-62
2021/11/26 08:37:08;;;;;;;19.63;10.93;;;4.60;99.90;;;;;;5057015;28;20410;-61
2021/11/26 08:39:34;;;;;;;18.50;11.45;;;4.70;99.90;;;;;;5053163;28;20091;-62
2021/11/26 08:41:59;;;;;;;21.75;11.45;;;4.70;99.90;;;;;;5052819;28;20021;-62
2021/11/26 08:44:25;;;;;;;22.95;12.07;;;4.70;99.90;;;;;;5042635;28;20036;-62
2021/11/26 08:46:53;;;;;;;21.20;12.93;;;4.70;99.90;;;;;;5056566;28;20341;-63
2021/11/26 08:49:21;;;;;;;25.95;12.82;;;4.70;99.90;;;;;;5035421;28;20462;-62
2021/11/26 08:51:49;;;;;;;22.58;11.65;;;4.70;99.90;;;;;;5053819;28;20024;-62
2021/11/26 08:54:15;;;;;;;17.40;10.68;;;4.80;99.90;;;;;;5056691;28;20033;-62
2021/11/26 08:56:44;;;;;;;26.20;12.18;;;4.80;99.90;;;;;;5052712;28;20032;-61
2021/11/26 08:59:09;;;;;;;22.02;11.77;;;4.90;99.90;;;;;;5056697;28;20048;-64
2021/11/26 09:01:35;;;;;;;21.55;11.27;;;4.90;99.90;;;;;;5051207;28;20033;-64
2021/11/26 09:04:03;;;;;;;21.92;13.02;;;4.90;99.90;;;;;;5051574;28;20033;-63
2021/11/26 09:06:29;;;;;;;22.52;11.82;;;5.00;99.90;;;;;;5054004;28;20029;-65
2021/11/26 09:08:54;;;;;;;23.85;11.70;;;5.00;99.90;;;;;;5047292;28;20040;-64
2021/11/26 09:11:23;;;;;;;18.17;9.43;;;5.10;99.90;;;;;;5053938;28;20125;-65
2021/11/26 09:13:48;;;;;;;17.60;9.60;;;5.10;99.90;;;;;;5057579;28;20051;-62
2021/11/26 09:16:21;;;;;;;18.85;10.23;;;5.10;99.90;;;;;;5053931;28;20068;-63
2021/11/26 09:18:47;;;;;;;16.00;9.20;;;5.10;99.90;;;;;;5048365;28;20021;-64
2021/11/26 09:21:15;;;;;;;16.13;9.23;;;5.20;99.90;;;;;;5055371;28;20406;-61
2021/11/26 09:23:41;;;;;;;21.25;10.82;;;5.20;99.90;;;;;;5057883;28;20540;-65
2021/11/26 09:26:07;;;;;;;19.88;10.52;;;5.40;99.90;;;;;;5052094;28;20036;-65
2021/11/26 09:28:35;;;;;;;24.52;11.15;;;5.20;99.90;;;;;;5053271;28;20095;-63
2021/11/26 09:31:01;;;;;;;21.95;11.43;;;5.20;99.90;;;;;;5041557;28;20036;-62
2021/11/26 09:33:35;;;;;;;23.02;11.63;;;5.30;99.90;;;;;;5059082;28;20090;-63
2021/11/26 09:36:04;;;;;;;14.35;7.30;;;5.30;99.90;;;;;;5054019;28;20029;-63
2021/11/26 09:38:33;;;;;;;15.77;8.73;;;5.30;99.90;;;;;;5054193;28;20029;-61
2021/11/26 09:41:00;;;;;;;17.05;8.35;;;5.40;99.90;;;;;;5048510;28;20025;-62
2021/11/26 09:43:26;;;;;;;18.83;10.15;;;5.30;99.90;;;;;;5050364;28;20560;-62
2021/11/26 09:45:55;;;;;;;17.77;8.63;;;5.50;99.90;;;;;;5053031;28;20040;-64
2021/11/26 09:48:23;;;;;;;21.08;10.35;;;5.50;99.90;;;;;;5052703;28;20063;-63
2021/11/26 09:50:49;;;;;;;18.70;9.27;;;5.40;99.90;;;;;;5053087;28;20025;-64
2021/11/26 09:53:20;;;;;;;22.65;10.25;;;5.40;99.90;;;;;;5053033;28;20083;-63
2021/11/26 09:55:53;;;;;;;14.88;8.27;;;5.40;99.90;;;;;;5054924;28;20029;-63
2021/11/26 09:58:21;;;;;;;21.52;9.70;;;5.40;99.90;;;;;;5056957;28;20029;-63
2021/11/26 10:00:54;;;;;;;19.90;8.10;;;5.50;99.90;;;;;;5059534;28;20016;-60
2021/11/26 10:03:42;;;;;;;22.27;10.75;;;5.50;99.90;;;;;;5057903;28;20035;-59
2021/11/26 10:06:44;;;;;;;17.45;7.30;;;5.50;99.90;;;;;;5058260;28;20048;-64
2021/11/26 10:09:14;;;;;;;18.88;7.53;;;5.60;99.90;;;;;;5056794;28;20031;-63
2021/11/26 10:12:05;;;;;;;18.03;8.37;;;5.60;99.90;;;;;;5063278;28;20358;-64
2021/11/26 10:14:36;;;;;;;17.95;7.18;;;5.60;99.90;;;;;;5055107;28;20529;-62
2021/11/26 10:17:12;;;;;;;14.38;6.95;;;5.60;99.90;;;;;;5043048;28;20074;-63
2021/11/26 10:19:42;;;;;;;16.77;6.18;;;5.60;99.90;;;;;;5057631;28;20633;-63
2021/11/26 10:22:27;;;;;;;15.30;6.18;;;5.60;99.90;;;;;;5056640;28;20154;-64
2021/11/26 10:25:19;;;;;;;18.98;7.25;;;5.60;99.90;;;;;;5055569;28;20442;-64
2021/11/26 10:27:44;;;;;;;16.65;6.80;;;5.50;99.90;;;;;;5056047;28;20037;-63
2021/11/26 10:30:15;;;;;;;26.02;9.43;;;5.50;99.90;;;;;;5032250;28;20098;-64
2021/11/26 10:32:52;;;;;;;12.05;5.53;;;5.50;99.90;;;;;;5056186;28;20029;-64
2021/11/26 10:35:18;;;;;;;15.15;7.03;;;5.50;99.90;;;;;;5058027;28;20433;-61
2021/11/26 10:38:02;;;;;;;15.55;6.25;;;5.50;99.90;;;;;;5057489;28;20017;-62
2021/11/26 10:40:31;;;;;;;12.93;5.32;;;5.60;99.90;;;;;;5051227;28;20013;-63
2021/11/26 10:43:00;;;;;;;16.30;5.50;;;5.60;99.90;;;;;;5053310;28;20107;-65
2021/11/26 10:59:09;;;;;;;12.35;4.93;;;5.50;99.90;;;;;;5050875;28;20036;-63
2021/11/26 11:01:47;;;;;;;10.30;3.83;;;5.40;99.90;;;;;;5052476;28;20446;-63
2021/11/26 11:04:15;;;;;;;8.55;4.30;;;5.40;99.90;;;;;;5055754;28;20017;-66
2021/11/26 11:06:43;;;;;;;12.80;5.22;;;5.40;99.90;;;;;;5062668;28;20025;-63
2021/11/26 11:09:11;;;;;;;9.18;3.63;;;5.50;99.90;;;;;;5059157;28;20090;-62
2021/11/26 11:11:47;;;;;;;8.57;4.05;;;5.50;99.90;;;;;;5056169;28;20025;-64
2021/11/26 11:14:14;;;;;;;9.57;3.50;;;5.60;99.90;;;;;;5055933;28;20021;-63
2021/11/26 11:16:52;;;;;;;10.27;4.60;;;5.60;99.90;;;;;;5055097;28;20430;-64
2021/11/26 11:19:20;;;;;;;11.98;4.60;;;5.60;99.90;;;;;;5055549;28;20040;-67
2021/11/26 11:21:48;;;;;;;13.20;5.20;;;5.70;99.90;;;;;;5050649;28;20554;-64
2021/11/26 11:24:16;;;;;;;10.07;3.20;;;5.70;99.90;;;;;;5055499;28;20092;-64
2021/11/26 11:26:47;;;;;;;13.00;4.22;;;5.70;99.90;;;;;;5060103;28;20024;-63
2021/11/26 11:29:23;;;;;;;17.05;5.03;;;5.90;99.90;;;;;;5038998;28;20025;-64
2021/11/26 11:31:52;;;;;;;10.55;4.35;;;5.90;99.90;;;;;;5060004;28;20044;-63
2021/11/26 11:34:21;;;;;;;19.88;5.35;;;5.90;99.90;;;;;;5037711;28;20478;-64
2021/11/26 11:36:48;;;;;;;8.90;3.40;;;6.00;99.90;;;;;;5057660;28;20075;-65
2021/11/26 11:39:16;;;;;;;6.20;2.92;;;5.90;99.90;;;;;;5058985;28;20105;-63
2021/11/26 11:41:48;;;;;;;7.70;2.50;;;5.90;99.90;;;;;;5055436;28;20020;-62
2021/11/26 11:44:25;;;;;;;10.85;4.45;;;5.90;99.90;;;;;;5055070;28;20025;-65
2021/11/26 11:46:51;;;;;;;8.48;3.50;;;6.00;99.90;;;;;;5058106;28;20566;-64
2021/11/26 11:49:28;;;;;;;5.70;2.35;;;6.10;99.90;;;;;;5056918;28;20079;-63
2021/11/26 11:52:03;;;;;;;13.07;4.07;;;6.10;99.90;;;;;;5054978;28;20021;-65
2021/11/26 11:54:38;;;;;;;5.43;2.55;;;6.20;99.90;;;;;;5054964;28;20021;-65
2021/11/26 11:57:06;;;;;;;8.20;2.47;;;6.20;99.90;;;;;;5059056;28;20029;-66
2021/11/26 11:59:35;;;;;;;9.00;4.18;;;6.20;99.90;;;;;;5054774;28;20020;-62
2021/11/26 12:02:03;;;;;;;8.13;3.17;;;6.20;99.90;;;;;;5058437;28;20077;-64
2021/11/26 12:04:45;;;;;;;12.35;3.45;;;6.20;99.90;;;;;;5048354;28;20098;-65
2021/11/26 12:07:27;;;;;;;7.63;3.00;;;6.20;99.90;;;;;;5036890;28;20040;-64
2021/11/26 12:10:08;;;;;;;9.60;3.05;;;6.30;99.90;;;;;;5054751;28;20060;-62
2021/11/26 12:12:54;;;;;;;3.50;2.53;;;6.40;99.90;;;;;;5056946;28;20021;-64
2021/11/26 12:15:33;;;;;;;6.43;2.70;;;6.50;99.90;;;;;;5030914;28;20048;-62
2021/11/26 12:18:08;;;;;;;6.13;2.47;;;6.50;99.90;;;;;;5059263;28;20020;-65
2021/11/26 12:20:35;;;;;;;8.98;2.63;;;6.40;99.90;;;;;;5036226;28;20056;-63
2021/11/26 12:23:14;;;;;;;7.40;2.53;;;6.50;99.90;;;;;;5054251;28;20107;-64
2021/11/26 12:28:17;;;;;;;6.93;2.42;;;6.40;99.90;;;;;;5053690;28;20052;-64
2021/11/26 12:30:43;;;;;;;6.18;2.10;;;6.40;99.90;;;;;;5053691;28;20032;-62
2021/11/26 12:33:23;;;;;;;8.43;3.38;;;6.40;99.90;;;;;;5056423;28;20029;-63
2021/11/26 12:36:03;;;;;;;5.60;2.25;;;6.40;99.90;;;;;;5030848;28;20388;-65
2021/11/26 12:38:46;;;;;;;8.90;2.72;;;6.30;99.90;;;;;;5050660;28;20085;-64
2021/11/26 12:41:25;;;;;;;8.80;2.85;;;6.30;99.90;;;;;;5058154;28;20079;-63
2021/11/26 12:43:51;;;;;;;6.05;2.67;;;6.30;99.90;;;;;;5058865;28;20360;-63
2021/11/26 12:46:37;;;;;;;11.60;3.58;;;6.40;99.90;;;;;;5054252;28;20025;-65
2021/11/26 12:51:41;;;;;;;3.10;2.05;;;6.40;99.90;;;;;;5057143;28;20021;-65
2021/11/26 12:54:22;;;;;;;7.68;2.55;;;6.50;99.90;;;;;;5037347;28;20025;-65
2021/11/26 12:56:48;;;;;;;8.27;2.70;;;6.50;99.90;;;;;;5038895;28;20056;-63
2021/11/26 12:59:14;;;;;;;12.43;2.88;;;6.50;99.90;;;;;;5054068;28;20033;-63
2021/11/26 13:01:50;;;;;;;9.02;2.65;;;6.50;99.90;;;;;;5059071;28;20025;-66
2021/11/26 13:04:15;;;;;;;4.80;2.15;;;6.50;99.90;;;;;;5053938;28;20039;-65
2021/11/26 13:06:41;;;;;;;5.05;2.25;;;6.40;99.90;;;;;;5053580;28;20422;-64